sensor_id;sensor_type;location;lat;lon;timestamp;P1;durP1;ratioP1;P2;durP2;ratioP2
26177;SDS011;13924;47.670;10.310;2023-08-20T00:00:37;9.1;;;5.3;;
26177;SDS011;13924;47.670;10.310;2023-08-20T00:15:38;5.7;;;4.8;;
26177;SDS011;13924;47.670;10.310;2023-08-20T00:30:39;5.8;;;5.3;;
26177;SDS011;13924;47.670;10.310;2023-08-20T00:45:40;11.2;;;5.8;;
26177;SDS011;13924;47.670;10.310;2023-08-20T01:00:40;8.2;;;4.9;;
26177;SDS011;13924;47.670;10.310;2023-08-20T01:01:26;7.7;;;5.1;;
26177;SDS011;13924;47.670;10.310;2023-08-20T01:15:41;6.7;;;4.9;;
26177;SDS011;13924;47.670;10.310;2023-08-20T01:30:41;8.8;;;5.8;;
26177;SDS011;13924;47.670;10.310;2023-08-20T01:45:42;6.7;;;5.5;;
26177;SDS011;13924;47.670;10.310;2023-08-20T02:00:42;9.7;;;5.7;;
26177;SDS011;13924;47.670;10.310;2023-08-20T02:15:44;6.0;;;5.1;;
26177;SDS011;13924;47.670;10.310;2023-08-20T02:30:44;7.8;;;5.2;;
26177;SDS011;13924;47.670;10.310;2023-08-20T02:45:44;13.5;;;5.5;;
26177;SDS011;13924;47.670;10.310;2023-08-20T03:00:45;7.9;;;6.1;;
26177;SDS011;13924;47.670;10.310;2023-08-20T03:15:46;7.9;;;6.0;;
26177;SDS011;13924;47.670;10.310;2023-08-20T03:30:46;8.2;;;5.9;;
26177;SDS011;13924;47.670;10.310;2023-08-20T03:45:49;7.5;;;6.8;;
26177;SDS011;13924;47.670;10.310;2023-08-20T04:00:48;6.9;;;6.0;;
26177;SDS011;13924;47.670;10.310;2023-08-20T04:10:11;8.2;;;5.1;;
26177;SDS011;13924;47.670;10.310;2023-08-20T04:25:12;8.8;;;6.4;;
26177;SDS011;13924;47.670;10.310;2023-08-20T04:40:13;8.0;;;6.4;;
26177;SDS011;13924;47.670;10.310;2023-08-20T04:55:13;6.9;;;6.2;;
26177;SDS011;13924;47.670;10.310;2023-08-20T05:10:14;13.3;;;8.6;;
26177;SDS011;13924;47.670;10.310;2023-08-20T05:25:15;8.8;;;6.0;;
26177;SDS011;13924;47.670;10.310;2023-08-20T05:40:19;10.0;;;6.3;;
26177;SDS011;13924;47.670;10.310;2023-08-20T05:55:15;7.6;;;6.0;;
26177;SDS011;13924;47.670;10.310;2023-08-20T06:10:16;7.0;;;5.5;;
26177;SDS011;13924;47.670;10.310;2023-08-20T06:25:18;7.1;;;4.9;;
26177;SDS011;13924;47.670;10.310;2023-08-20T06:40:17;9.9;;;3.9;;
26177;SDS011;13924;47.670;10.310;2023-08-20T06:55:19;7.3;;;5.0;;
26177;SDS011;13924;47.670;10.310;2023-08-20T07:10:19;7.6;;;5.5;;
26177;SDS011;13924;47.670;10.310;2023-08-20T07:25:19;7.4;;;5.4;;
26177;SDS011;13924;47.670;10.310;2023-08-20T07:40:20;9.9;;;5.8;;
26177;SDS011;13924;47.670;10.310;2023-08-20T07:55:21;4.9;;;4.5;;
26177;SDS011;13924;47.670;10.310;2023-08-20T08:10:21;7.6;;;5.4;;
26177;SDS011;13924;47.670;10.310;2023-08-20T08:25:23;5.8;;;4.8;;
26177;SDS011;13924;47.670;10.310;2023-08-20T08:40:23;10.5;;;5.6;;
26177;SDS011;13924;47.670;10.310;2023-08-20T08:55:24;11.3;;;6.5;;
26177;SDS011;13924;47.670;10.310;2023-08-20T09:10:26;7.6;;;5.6;;
26177;SDS011;13924;47.670;10.310;2023-08-20T09:25:25;13.6;;;5.8;;
26177;SDS011;13924;47.670;10.310;2023-08-20T09:40:26;8.3;;;5.7;;
26177;SDS011;13924;47.670;10.310;2023-08-20T09:55:28;7.1;;;5.3;;
26177;SDS011;13924;47.670;10.310;2023-08-20T10:10:27;8.0;;;5.5;;
26177;SDS011;13924;47.670;10.310;2023-08-20T10:25:28;9.8;;;6.0;;
26177;SDS011;13924;47.670;10.310;2023-08-20T10:40:46;5.4;;;4.9;;
26177;SDS011;13924;47.670;10.310;2023-08-20T10:55:29;7.6;;;4.7;;
26177;SDS011;13924;47.670;10.310;2023-08-20T11:10:29;7.9;;;5.6;;
26177;SDS011;13924;47.670;10.310;2023-08-20T11:25:31;6.7;;;4.7;;
26177;SDS011;13924;47.670;10.310;2023-08-20T11:40:32;11.6;;;7.8;;
26177;SDS011;13924;47.670;10.310;2023-08-20T11:55:32;10.1;;;5.0;;
26177;SDS011;13924;47.670;10.310;2023-08-20T12:10:33;8.8;;;5.0;;
26177;SDS011;13924;47.670;10.310;2023-08-20T12:25:33;6.5;;;3.8;;
26177;SDS011;13924;47.670;10.310;2023-08-20T12:40:34;4.5;;;3.3;;
26177;SDS011;13924;47.670;10.310;2023-08-20T12:55:34;8.3;;;4.0;;
26177;SDS011;13924;47.670;10.310;2023-08-20T13:10:35;4.0;;;3.2;;
26177;SDS011;13924;47.670;10.310;2023-08-20T13:25:35;4.7;;;3.1;;
26177;SDS011;13924;47.670;10.310;2023-08-20T13:40:36;5.2;;;3.5;;
26177;SDS011;13924;47.670;10.310;2023-08-20T13:55:36;5.4;;;3.6;;
26177;SDS011;13924;47.670;10.310;2023-08-20T14:10:37;4.1;;;3.5;;
26177;SDS011;13924;47.670;10.310;2023-08-20T14:25:38;6.0;;;3.3;;
26177;SDS011;13924;47.670;10.310;2023-08-20T14:40:43;7.9;;;3.5;;
26177;SDS011;13924;47.670;10.310;2023-08-20T14:55:39;4.8;;;3.2;;
26177;SDS011;13924;47.670;10.310;2023-08-20T15:10:40;5.1;;;3.6;;
26177;SDS011;13924;47.670;10.310;2023-08-20T15:25:40;3.8;;;3.2;;
26177;SDS011;13924;47.670;10.310;2023-08-20T15:40:41;5.7;;;3.5;;
26177;SDS011;13924;47.670;10.310;2023-08-20T15:55:45;5.5;;;3.4;;
26177;SDS011;13924;47.670;10.310;2023-08-20T16:10:42;5.7;;;3.5;;
26177;SDS011;13924;47.670;10.310;2023-08-20T16:25:43;7.0;;;3.7;;
26177;SDS011;13924;47.670;10.310;2023-08-20T16:40:45;5.0;;;3.2;;
26177;SDS011;13924;47.670;10.310;2023-08-20T16:55:49;6.9;;;3.9;;
26177;SDS011;13924;47.670;10.310;2023-08-20T17:10:45;6.1;;;3.9;;
26177;SDS011;13924;47.670;10.310;2023-08-20T17:25:47;8.9;;;3.8;;
26177;SDS011;13924;47.670;10.310;2023-08-20T17:40:49;11.2;;;4.8;;
26177;SDS011;13924;47.670;10.310;2023-08-20T17:55:47;7.2;;;4.2;;
26177;SDS011;13924;47.670;10.310;2023-08-20T18:10:47;6.4;;;4.9;;
26177;SDS011;13924;47.670;10.310;2023-08-20T18:25:51;15.6;;;9.1;;
26177;SDS011;13924;47.670;10.310;2023-08-20T18:40:48;9.7;;;6.7;;
26177;SDS011;13924;47.670;10.310;2023-08-20T18:55:50;13.9;;;7.8;;
26177;SDS011;13924;47.670;10.310;2023-08-20T19:10:51;11.3;;;6.3;;
26177;SDS011;13924;47.670;10.310;2023-08-20T19:25:50;6.6;;;5.9;;
26177;SDS011;13924;47.670;10.310;2023-08-20T19:40:52;13.9;;;6.0;;
26177;SDS011;13924;47.670;10.310;2023-08-20T19:55:54;11.6;;;7.0;;
26177;SDS011;13924;47.670;10.310;2023-08-20T20:10:53;10.7;;;6.9;;
26177;SDS011;13924;47.670;10.310;2023-08-20T20:25:53;10.5;;;6.7;;
26177;SDS011;13924;47.670;10.310;2023-08-20T20:40:54;8.4;;;6.6;;
26177;SDS011;13924;47.670;10.310;2023-08-20T20:56:04;7.3;;;6.2;;
26177;SDS011;13924;47.670;10.310;2023-08-20T21:10:56;7.9;;;6.1;;
26177;SDS011;13924;47.670;10.310;2023-08-20T21:26:04;12.0;;;6.1;;
26177;SDS011;13924;47.670;10.310;2023-08-20T21:41:07;13.5;;;6.3;;
26177;SDS011;13924;47.670;10.310;2023-08-20T21:56:05;8.3;;;6.3;;
26177;SDS011;13924;47.670;10.310;2023-08-20T22:00:32;14.0;;;6.3;;
26177;SDS011;13924;47.670;10.310;2023-08-20T22:15:33;7.0;;;6.2;;
26177;SDS011;13924;47.670;10.310;2023-08-20T22:30:34;11.8;;;6.3;;
26177;SDS011;13924;47.670;10.310;2023-08-20T22:45:34;9.8;;;6.9;;
26177;SDS011;13924;47.670;10.310;2023-08-20T23:00:35;11.1;;;6.7;;
26177;SDS011;13924;47.670;10.310;2023-08-20T23:15:37;8.8;;;6.5;;
26177;SDS011;13924;47.670;10.310;2023-08-20T23:30:41;11.1;;;6.4;;
26177;SDS011;13924;47.670;10.310;2023-08-20T23:45:38;8.7;;;6.9;;
